Flight Track Log - Related Links

Times and Time Zones

All times are in EDT time to prevent confusion due to time zone crossing. See the UAL4563 flight status page for this flight to view local times or setup timezone preferences in your user account.

Time Position Orientation Groundspeed Altitude Reporting Facility
EDT Latitude Longitude Course Direction KTS MPH feet Rate Location/Type
Wed 07:05:17 PM 41.3917 -81.8978 274° West 191 220 2,000  Level Cleveland Center
Wed 07:05:48 PM 41.3933 -81.9339 274° West 201 231 2,900 2,110 Climbing Cleveland Center
Wed 07:06:48 PM 41.4156 -82.0008 294° West 228 262 5,200 2,047 Climbing Cleveland Center
Wed 07:07:57 PM 41.4844 -81.9939 North 262 302 7,300 1,814 Climbing Cleveland Center
Wed 07:08:57 PM 41.5353 -81.9258 45° Northeast 252 290 9,100 1,700 Climbing Cleveland Center
Wed 07:09:57 PM 41.5842 -81.8433 52° Northeast 262 302 10,700 1,100 Climbing Cleveland Center
Wed 07:10:57 PM 41.6414 -81.7528 50° Northeast 305 351 11,300 1,000 Climbing Cleveland Center
Wed 07:11:57 PM 41.7069 -81.6400 52° Northeast 337 388 12,700 1,500 Climbing Cleveland Center
Wed 07:12:57 PM 41.7664 -81.5381 52° Northeast 345 397 14,300 1,600 Climbing Cleveland Center
Wed 07:13:57 PM 41.8253 -81.4414 51° Northeast 345 397 15,900 1,500 Climbing Cleveland Center
Wed 07:14:57 PM 41.8533 -81.3192 73° East 332 382 17,300 1,100 Climbing Cleveland Center
Wed 07:15:57 PM 41.8750 -81.1883 77° East 340 391 18,100 950 Climbing Cleveland Center
Wed 07:16:57 PM 41.8964 -81.0572 78° East 357 411 19,200 1,050 Climbing Cleveland Center
Wed 07:17:57 PM 41.9178 -80.9181 78° East 370 426 20,200 900 Climbing Cleveland Center
Wed 07:18:57 PM 41.9389 -80.7925 77° East 375 432 21,000 950 Climbing Cleveland Center
Wed 07:19:57 PM 41.9619 -80.6475 78° East 383 441 22,100 1,100 Climbing Cleveland Center
Wed 07:20:57 PM 41.9828 -80.5050 79° East 389 448 23,200 1,200 Climbing Cleveland Center
Wed 07:21:57 PM 42.0056 -80.3597 78° East 395 455 24,500 1,250 Climbing Cleveland Center
Wed 07:22:57 PM 42.0281 -80.2197 78° East 390 449 25,700 1,350 Climbing Cleveland Center
Wed 07:23:57 PM 42.0506 -80.0797 78° East 390 449 27,200 1,700 Climbing Cleveland Center
Wed 07:24:57 PM 42.0708 -79.9425 79° East 383 441 29,100 1,600 Climbing Cleveland Center
Wed 07:25:57 PM 42.0889 -79.8194 79° East 358 412 30,400 950 Climbing Cleveland Center
Wed 07:26:57 PM 42.1086 -79.6847 79° East 352 405 31,000 550 Climbing Cleveland Center
Wed 07:27:57 PM 42.1303 -79.5444 78° East 367 422 31,500 500 Climbing Cleveland Center
Wed 07:28:57 PM 42.1497 -79.3986 80° East 379 436 32,000 750 Climbing Cleveland Center
Wed 07:29:57 PM 42.1711 -79.2525 79° East 394 453 33,000 1,050 Climbing Cleveland Center
Wed 07:30:57 PM 42.1903 -79.1064 80° East 394 453 34,100 1,000 Climbing Cleveland Center
Wed 07:31:57 PM 42.2111 -78.9572 79° East 394 453 35,000 450 Climbing Cleveland Center
Wed 07:32:57 PM 42.2336 -78.7939 79° East 394 453 35,000  Level Cleveland Center
Wed 07:33:57 PM 42.2519 -78.6364 81° East 406 467 35,000  Level Cleveland Center
Wed 07:34:57 PM 42.2722 -78.4758 80° East 419 482 35,000  Level Cleveland Center
Wed 07:35:57 PM 42.2919 -78.3181 80° East 424 488 35,000  Level Cleveland Center
Wed 07:36:57 PM 42.3097 -78.1656 81° East 424 488 35,000  Level Cleveland Center
Wed 07:37:57 PM 42.3272 -78.0106 81° East 424 488 35,000  Level Cleveland Center
Wed 07:38:57 PM 42.3467 -77.8525 80° East 424 488 35,000  Level Cleveland Center
Wed 07:39:57 PM 42.3636 -77.6969 82° East 424 488 35,000  Level Cleveland Center
Wed 07:41:38 PM 42.3919 -77.4478 81° East 425 489 35,000  Level Boston Center
Wed 07:42:38 PM 42.4092 -77.2917 81° East 425 489 35,000  Level Boston Center
Wed 07:43:38 PM 42.4283 -77.1356 81° East 425 489 35,000  Level Boston Center
Wed 07:44:38 PM 42.4450 -76.9792 82° East 425 489 35,000  Level Boston Center
Wed 07:45:38 PM 42.4636 -76.8286 80° East 420 483 35,000  Level Boston Center
Wed 07:46:38 PM 42.4778 -76.6717 83° East 420 483 35,000  Level Boston Center
Wed 07:47:38 PM 42.4958 -76.5208 81° East 415 478 35,000  Level Boston Center
Wed 07:48:38 PM 42.5092 -76.3808 83° East 410 472 35,000  Level Boston Center
Wed 07:49:38 PM 42.5272 -76.2186 81° East 405 466 35,000  Level Boston Center
Wed 07:50:38 PM 42.5425 -76.0672 82° East 405 466 35,000  Level Boston Center
Wed 07:51:38 PM 42.5556 -75.9186 83° East 405 466 35,000  Level Boston Center
Wed 07:52:38 PM 42.5706 -75.7642 82° East 405 466 35,000  Level Boston Center
Wed 07:53:38 PM 42.5853 -75.6128 82° East 405 466 35,000  Level Boston Center
Wed 07:54:38 PM 42.5997 -75.4639 82° East 405 466 35,000 -50 Level Boston Center
Wed 07:55:38 PM 42.6142 -75.3122 83° East 405 466 34,900 -650 Descending Boston Center
Wed 07:56:38 PM 42.6283 -75.1578 83° East 405 466 33,700 -1,250 Descending Boston Center
Wed 07:57:38 PM 42.6444 -75.0031 82° East 405 466 32,400 -1,500 Descending Boston Center
Wed 07:58:38 PM 42.6564 -74.8483 84° East 405 466 30,700 -1,700 Descending Boston Center
Wed 07:59:38 PM 42.6719 -74.6936 82° East 405 466 29,000 -850 Descending Boston Center
Wed 08:00:38 PM 42.6833 -74.5303 85° East 420 483 29,000 -100 Level Boston Center
Wed 08:01:38 PM 42.6961 -74.4033 82° East 426 490 28,800 -900 Descending Boston Center
Wed 08:02:38 PM 42.7139 -74.2089 83° East 426 490 27,200 -1,400 Descending Boston Center
Wed 08:03:38 PM 42.7247 -74.0456 85° East 426 490 26,000 -600 Descending Boston Center
Wed 08:04:38 PM 42.7414 -73.8792 82° East 426 490 26,000  Level Boston Center
Wed 08:05:38 PM 42.7469 -73.7606 86° East 436 502 26,000 -800 Level Boston Center
Wed 08:06:38 PM 42.7600 -73.5289 86° East 441 507 24,400 -1,250 Descending Boston Center
Wed 08:07:38 PM 42.7653 -73.3819 87° East 441 507 23,500 -1,500 Descending Boston Center
Wed 08:08:38 PM 42.7708 -73.2036 88° East 436 502 21,400 -1,250 Descending Boston Center
Wed 08:09:38 PM 42.7761 -73.0453 87° East 426 490 21,000 -250 Descending Boston Center
Wed 08:10:38 PM 42.7831 -72.8814 87° East 426 490 20,900 -850 Descending Boston Center
Wed 08:11:38 PM 42.7878 -72.7258 88° East 416 479 19,300 -1,550 Descending Boston Center
Wed 08:12:38 PM 42.7964 -72.5817 85° East 403 464 17,800 -1,850 Descending Boston Center
Wed 08:13:38 PM 42.8025 -72.4344 87° East 397 457 15,600 -2,550 Descending Boston Center
Wed 08:14:38 PM 42.8089 -72.2958 86° East 386 444 12,700 -2,150 Descending Boston Center
Wed 08:15:38 PM 42.8128 -72.1825 87° East 345 397 11,300 -1,500 Descending Boston Center
Wed 08:16:38 PM 42.8186 -72.0581 86° East 306 352 9,700 -1,150 Descending Boston Center
Wed 08:17:38 PM 42.8206 -71.9675 88° East 274 315 9,000 -600 Descending Boston Center
Wed 08:18:38 PM 42.8283 -71.8653 84° East 256 295 8,500 -950 Descending Boston Center
Wed 08:19:38 PM 42.8656 -71.8142 45° Northeast 199 229 7,100 -1,300 Descending Boston Center
Wed 08:20:38 PM 42.9278 -71.7794 22° Northeast 206 237 5,900 -1,200 Descending Boston Center
Wed 08:21:38 PM 42.9797 -71.7506 22° Northeast 218 251 4,700 -1,000 Descending Boston Center
Wed 08:22:38 PM 43.0272 -71.6931 41° Northeast 213 245 3,900 -908 Descending Boston Center
Wed 08:24:43 PM 43.0667 -71.5333 71° East 211 243 1,900 -667 Descending KA90
Wed 08:25:38 PM 43.0281 -71.4944 144° Southeast 180 207 1,900 -236 Level Boston Center
Wed 08:26:50 PM 42.9903 -71.4694 154° Southeast 151 174 1,400 -636 Descending Boston Center
Wed 08:27:50 PM 42.9506 -71.4472 158° South 131 151 500 3,800 Descending Boston Center
Wed 08:28:50 PM 42.9231 -71.4278 153° Southeast 131 151 9,000 4,250 Climbing Boston Center
Wed 08:29:50 PM 42.8917 -71.4058 153° Southeast 131 151 9,000  Level Boston Center
Wed 08:31:00 PM 42.9167 -71.4333 316° Northwest  Level FlightAware Approximate
Wed 08:38:00 PM 42.9328 -71.4358 316° Northwest  Level Estimated
Wed 08:39:00 PM 42.9328 -71.4358 316° Northwest  Level Estimated
Wed 08:40:00 PM 42.9328 -71.4358 316° Northwest  Level Estimated
Wed 08:41:00 PM 42.9328 -71.4358 316° Northwest  Level Estimated

Login

Don't have an account? Register now (free) for customized features, flight alerts, and more!